createdAt,value
2023-03-14T00:01:31.324Z,113.67
2023-03-14T00:03:58.026Z,113.41
2023-03-14T00:06:24.972Z,113.61
2023-03-14T00:08:52.819Z,113.62
2023-03-14T00:11:21.927Z,113.85
2023-03-14T00:13:52.488Z,113.83
2023-03-14T00:16:20.788Z,114.06
2023-03-14T00:18:48.363Z,113.48
2023-03-14T00:21:15.348Z,113.22
2023-03-14T00:23:43.225Z,113.31
2023-03-14T00:26:15.044Z,113.00
2023-03-14T00:28:43.068Z,112.51
2023-03-14T00:31:12.077Z,112.45
2023-03-14T00:33:39.012Z,112.47
2023-03-14T00:36:09.972Z,111.98
2023-03-14T00:38:37.671Z,112.09
2023-03-14T00:41:09.824Z,111.82
2023-03-14T00:43:36.880Z,111.17
2023-03-14T00:46:04.416Z,110.42
2023-03-14T00:48:31.479Z,110.42
2023-03-14T00:50:58.583Z,110.25
2023-03-14T00:53:25.424Z,110.21
2023-03-14T00:55:52.251Z,110.39
2023-03-14T00:58:19.517Z,110.12
2023-03-14T01:00:47.030Z,109.99
2023-03-14T01:03:15.060Z,109.80
2023-03-14T01:05:42.122Z,109.69
2023-03-14T01:08:09.195Z,109.55
2023-03-14T01:10:41.101Z,109.82
2023-03-14T01:13:08.465Z,109.78
2023-03-14T01:15:36.234Z,109.94
2023-03-14T01:18:03.556Z,109.79
2023-03-14T01:20:30.351Z,109.83
2023-03-14T01:22:57.133Z,109.67
2023-03-14T01:25:24.148Z,109.74
2023-03-14T01:27:50.940Z,109.65
2023-03-14T01:30:17.667Z,109.92
2023-03-14T01:32:44.702Z,109.95
2023-03-14T01:35:11.491Z,109.98
2023-03-14T01:37:38.378Z,110.04
2023-03-14T01:40:06.749Z,110.35
2023-03-14T01:42:33.590Z,110.84
2023-03-14T01:45:02.808Z,111.33
2023-03-14T01:47:29.833Z,110.88
2023-03-14T01:50:07.520Z,110.96
2023-03-14T01:52:43.268Z,110.38
2023-03-14T01:55:30.372Z,110.34
2023-03-14T01:58:02.030Z,110.51
2023-03-14T02:00:28.819Z,111.40
2023-03-14T02:03:12.020Z,111.42
2023-03-14T02:05:41.555Z,111.68
2023-03-14T02:08:12.332Z,111.65
2023-03-14T02:10:43.848Z,112.03
2023-03-14T02:13:12.056Z,111.81
2023-03-14T02:15:40.087Z,111.60
2023-03-14T02:18:08.555Z,111.64
2023-03-14T02:20:43.852Z,111.35
2023-03-14T02:23:11.158Z,110.85
2023-03-14T02:25:52.193Z,111.18
2023-03-14T02:28:19.161Z,111.22
2023-03-14T02:30:46.031Z,111.48
2023-03-14T02:33:17.721Z,111.42
2023-03-14T02:35:54.148Z,111.52
2023-03-14T02:38:28.714Z,111.22
2023-03-14T02:40:55.529Z,110.97
2023-03-14T02:43:22.469Z,110.51
2023-03-14T02:45:50.805Z,110.33
2023-03-14T02:48:46.476Z,110.65
2023-03-14T02:51:14.179Z,110.56
2023-03-14T02:53:42.314Z,110.39
2023-03-14T02:56:10.502Z,110.55
2023-03-14T02:58:37.836Z,110.69
2023-03-14T03:01:05.406Z,110.74
2023-03-14T03:03:32.492Z,110.65
2023-03-14T03:05:59.577Z,110.35
2023-03-14T03:08:27.838Z,110.35
2023-03-14T03:10:55.060Z,109.66
2023-03-14T03:13:21.805Z,109.46
2023-03-14T03:15:48.629Z,109.55
2023-03-14T03:18:15.908Z,109.35
2023-03-14T03:20:42.629Z,109.31
2023-03-14T03:23:09.396Z,109.44
2023-03-14T03:25:36.168Z,109.36
2023-03-14T03:28:08.476Z,109.22
2023-03-14T03:30:39.445Z,109.01
2023-03-14T03:33:06.467Z,108.56
2023-03-14T03:35:33.686Z,108.50
2023-03-14T03:38:00.440Z,108.09
2023-03-14T03:40:27.645Z,108.23
2023-03-14T03:42:54.581Z,108.28
2023-03-14T03:45:21.412Z,108.11
2023-03-14T03:47:48.189Z,108.16
2023-03-14T03:50:14.991Z,108.05
2023-03-14T03:52:41.751Z,107.69
2023-03-14T03:55:09.036Z,107.63
2023-03-14T03:57:36.109Z,107.38
2023-03-14T04:00:06.069Z,107.11
2023-03-14T04:02:32.816Z,107.11
2023-03-14T04:04:59.737Z,107.44
2023-03-14T04:07:26.804Z,109.20
2023-03-14T04:09:53.542Z,111.58
2023-03-14T04:12:20.227Z,112.13
2023-03-14T04:14:47.332Z,112.00
2023-03-14T04:17:14.169Z,111.80
2023-03-14T04:19:40.972Z,111.67
2023-03-14T04:22:07.667Z,111.74
2023-03-14T04:24:34.401Z,111.40
2023-03-14T04:27:01.160Z,111.34
2023-03-14T04:29:27.954Z,111.51
2023-03-14T04:31:54.764Z,112.32
2023-03-14T04:34:21.440Z,112.32
2023-03-14T04:36:48.198Z,112.84
2023-03-14T04:39:14.884Z,113.44
2023-03-14T04:41:41.625Z,113.84
2023-03-14T04:44:08.298Z,113.83
2023-03-14T04:46:35.115Z,113.63
2023-03-14T04:49:01.920Z,113.71
2023-03-14T04:51:28.709Z,113.54
2023-03-14T04:53:56.384Z,113.21
2023-03-14T04:56:23.186Z,113.32
2023-03-14T04:58:49.900Z,113.16
2023-03-14T05:01:16.800Z,113.05
2023-03-14T05:03:43.557Z,113.13
2023-03-14T05:06:10.393Z,112.76
2023-03-14T05:08:37.499Z,112.49
2023-03-14T05:11:04.416Z,112.75
2023-03-14T05:13:31.148Z,112.34
2023-03-14T05:16:09.077Z,112.13
2023-03-14T05:18:36.246Z,111.57
2023-03-14T05:21:04.533Z,112.08
2023-03-14T05:23:31.626Z,111.72
2023-03-14T05:25:58.399Z,111.78
2023-03-14T05:28:25.195Z,111.50
2023-03-14T05:30:51.956Z,111.81
2023-03-14T05:33:18.721Z,111.72
2023-03-14T05:35:45.482Z,111.87
2023-03-14T05:38:12.304Z,111.58
2023-03-14T05:40:39.058Z,111.66
2023-03-14T05:43:05.860Z,112.13
2023-03-14T05:45:34.551Z,111.68
2023-03-14T05:48:02.436Z,111.51
2023-03-14T05:50:29.343Z,111.13
2023-03-14T05:52:56.178Z,111.08
2023-03-14T05:55:22.938Z,111.01
2023-03-14T05:57:49.681Z,110.75
2023-03-14T06:00:16.937Z,110.34
2023-03-14T06:02:43.636Z,110.13
2023-03-14T06:05:10.470Z,109.77
2023-03-14T06:07:37.287Z,109.48
2023-03-14T06:10:04.530Z,109.29
2023-03-14T06:12:31.536Z,108.94
2023-03-14T06:14:58.298Z,108.96
2023-03-14T06:17:25.061Z,108.65
2023-03-14T06:19:51.843Z,108.50
2023-03-14T06:22:18.586Z,108.56
2023-03-14T06:24:45.335Z,108.80
2023-03-14T06:27:12.177Z,108.61
2023-03-14T06:29:38.943Z,108.51
2023-03-14T06:32:06.206Z,108.29
2023-03-14T06:34:32.984Z,107.72
2023-03-14T06:36:59.743Z,107.47
2023-03-14T06:39:26.549Z,107.59
2023-03-14T06:41:53.297Z,107.50
2023-03-14T06:44:20.204Z,107.41
2023-03-14T06:46:46.994Z,107.17
2023-03-14T06:49:13.767Z,107.67
2023-03-14T06:51:40.601Z,107.43
2023-03-14T06:54:07.769Z,107.11
2023-03-14T06:56:34.578Z,107.99
2023-03-14T06:59:01.420Z,107.45
2023-03-14T07:01:30.873Z,107.53
2023-03-14T07:03:58.002Z,107.19
2023-03-14T07:06:26.019Z,107.56
2023-03-14T07:08:52.863Z,107.84
2023-03-14T07:11:19.657Z,107.53
2023-03-14T07:13:46.367Z,107.47
2023-03-14T07:16:13.153Z,106.58
2023-03-14T07:18:40.046Z,106.52
2023-03-14T07:21:08.372Z,105.82
2023-03-14T07:23:35.331Z,105.56
2023-03-14T07:26:02.789Z,106.17
2023-03-14T07:28:29.614Z,106.56
2023-03-14T07:30:56.849Z,107.13
2023-03-14T07:33:23.585Z,107.94
2023-03-14T07:35:51.023Z,108.78
2023-03-14T07:38:18.043Z,108.77
2023-03-14T07:40:44.906Z,107.70
2023-03-14T07:43:11.681Z,107.46
2023-03-14T07:45:43.263Z,107.47
2023-03-14T07:48:10.878Z,105.46
2023-03-14T07:50:37.835Z,104.76
2023-03-14T07:53:04.658Z,105.05
2023-03-14T07:55:31.405Z,104.98
2023-03-14T07:57:58.155Z,104.54
2023-03-14T08:00:25.022Z,104.98
2023-03-14T08:02:54.090Z,104.00
2023-03-14T08:05:21.017Z,104.19
2023-03-14T08:07:47.749Z,103.47
2023-03-14T08:10:21.996Z,102.41
2023-03-14T08:12:55.986Z,100.96
2023-03-14T08:15:23.581Z,100.21
2023-03-14T08:17:52.101Z,100.30
2023-03-14T08:20:19.446Z,100.48
2023-03-14T08:22:46.233Z,99.76
2023-03-14T08:25:13.306Z,99.36
2023-03-14T08:27:40.225Z,98.75
2023-03-14T08:30:08.948Z,98.44
2023-03-14T08:32:35.840Z,98.09
2023-03-14T08:35:02.905Z,98.56
2023-03-14T08:37:29.773Z,98.68
2023-03-14T08:39:56.517Z,98.68
2023-03-14T08:42:23.432Z,98.75
2023-03-14T08:44:51.546Z,96.01
2023-03-14T08:47:18.440Z,92.66
2023-03-14T08:49:45.320Z,92.37
2023-03-14T08:52:12.508Z,92.24
2023-03-14T08:54:39.259Z,92.09
2023-03-14T08:57:06.507Z,91.76
2023-03-14T08:59:33.324Z,93.99
2023-03-14T09:02:00.123Z,92.72
2023-03-14T09:04:27.060Z,92.68
2023-03-14T09:06:54.020Z,89.24
2023-03-14T09:09:20.742Z,88.12
2023-03-14T09:11:47.568Z,85.23
2023-03-14T09:14:14.838Z,84.78
2023-03-14T09:16:41.719Z,86.52
2023-03-14T09:19:08.476Z,89.12
2023-03-14T09:21:35.271Z,87.48
2023-03-14T09:24:01.995Z,79.97
2023-03-14T09:26:28.781Z,79.84
2023-03-14T09:28:58.195Z,81.20
2023-03-14T09:31:25.500Z,84.66
2023-03-14T09:33:52.305Z,86.74
2023-03-14T09:36:19.008Z,86.98
2023-03-14T09:38:45.880Z,86.90
2023-03-14T09:41:35.153Z,88.47
2023-03-14T09:44:09.636Z,87.51
2023-03-14T09:46:39.682Z,89.31
2023-03-14T09:49:22.762Z,88.76
2023-03-14T09:51:54.876Z,89.01
2023-03-14T09:54:45.171Z,88.70
2023-03-14T09:57:25.456Z,88.56
2023-03-14T09:59:56.693Z,87.64
2023-03-14T10:02:34.467Z,84.77
2023-03-14T10:05:06.798Z,87.03
2023-03-14T10:07:34.431Z,87.06
2023-03-14T10:10:01.766Z,87.57
2023-03-14T10:12:34.181Z,86.89
2023-03-14T10:15:13.163Z,88.80
2023-03-14T10:17:47.740Z,87.90
2023-03-14T10:20:39.002Z,88.57
2023-03-14T10:23:24.111Z,89.41
2023-03-14T10:26:03.830Z,89.54
2023-03-14T10:28:34.413Z,88.95
2023-03-14T10:31:01.904Z,87.75
2023-03-14T10:33:31.824Z,86.68
2023-03-14T10:36:04.583Z,84.86
2023-03-14T10:38:34.011Z,83.58
2023-03-14T10:41:01.662Z,81.29
2023-03-14T10:43:36.902Z,75.37
2023-03-14T10:46:10.988Z,79.77
2023-03-14T10:48:39.407Z,78.96
2023-03-14T10:51:08.475Z,81.84
2023-03-14T10:53:50.668Z,84.00
2023-03-14T10:56:20.579Z,85.36
2023-03-14T10:58:50.309Z,85.16
2023-03-14T11:01:39.122Z,85.68
2023-03-14T11:04:26.536Z,86.92
2023-03-14T11:07:11.659Z,87.49
2023-03-14T11:10:00.702Z,88.51
2023-03-14T11:12:40.670Z,89.82
2023-03-14T11:15:16.975Z,90.15
2023-03-14T11:18:09.212Z,91.37
2023-03-14T11:21:17.917Z,91.43
2023-03-14T11:24:11.740Z,93.49
2023-03-14T11:26:51.612Z,98.38
2023-03-14T11:29:29.256Z,103.98
2023-03-14T11:32:01.169Z,106.59
2023-03-14T11:34:50.507Z,108.40
2023-03-14T11:37:33.492Z,108.72
2023-03-14T11:40:12.220Z,109.45
2023-03-14T11:42:41.398Z,105.25
2023-03-14T11:45:20.001Z,108.11
2023-03-14T11:48:14.227Z,109.24
2023-03-14T11:50:44.594Z,108.76
2023-03-14T11:53:22.878Z,110.71
2023-03-14T11:55:50.973Z,112.09
2023-03-14T11:58:28.290Z,112.89
2023-03-14T12:00:57.764Z,113.41
2023-03-14T12:03:53.699Z,114.34
2023-03-14T12:06:23.576Z,113.68
2023-03-14T12:09:01.701Z,112.80
2023-03-14T12:11:50.110Z,112.67
2023-03-14T12:14:25.827Z,113.95
2023-03-14T12:17:07.554Z,114.18
2023-03-14T12:19:39.836Z,113.26
2023-03-14T12:22:06.579Z,113.35
2023-03-14T12:24:37.431Z,112.36
2023-03-14T12:27:06.656Z,112.71
2023-03-14T12:29:33.648Z,112.63
2023-03-14T12:32:24.774Z,113.26
2023-03-14T12:34:52.118Z,114.17
2023-03-14T12:37:35.290Z,113.72
2023-03-14T12:40:11.372Z,113.37
2023-03-14T12:42:45.070Z,112.14
2023-03-14T12:45:27.624Z,113.27
2023-03-14T12:47:57.056Z,112.87
2023-03-14T12:50:32.985Z,112.73
2023-03-14T12:53:02.591Z,112.03
2023-03-14T12:55:45.570Z,112.26
2023-03-14T12:58:21.346Z,111.76
2023-03-14T13:00:56.797Z,112.52
2023-03-14T13:03:29.241Z,112.57
2023-03-14T13:06:02.748Z,112.55
2023-03-14T13:08:48.320Z,112.23
2023-03-14T13:11:20.967Z,112.13
2023-03-14T13:13:57.587Z,112.45
2023-03-14T13:16:24.987Z,112.93
2023-03-14T13:19:20.180Z,113.12
2023-03-14T13:21:47.249Z,113.70
2023-03-14T13:24:26.032Z,113.74
2023-03-14T13:26:56.930Z,113.75
2023-03-14T13:29:27.149Z,113.00
2023-03-14T13:31:59.147Z,112.90
2023-03-14T13:34:34.769Z,112.84
2023-03-14T13:37:01.894Z,110.91
2023-03-14T13:39:30.461Z,111.28
2023-03-14T13:42:01.977Z,110.49
2023-03-14T13:44:34.853Z,110.55
2023-03-14T13:47:04.021Z,110.84
2023-03-14T13:49:36.467Z,110.11
2023-03-14T13:52:04.132Z,109.59
2023-03-14T13:54:33.013Z,109.48
2023-03-14T13:57:09.293Z,110.03
2023-03-14T13:59:36.625Z,109.63
2023-03-14T14:02:17.314Z,109.11
2023-03-14T14:04:45.715Z,109.66
2023-03-14T14:07:19.333Z,109.60
2023-03-14T14:09:52.687Z,107.62
2023-03-14T14:12:36.221Z,107.96
2023-03-14T14:15:08.599Z,109.64
2023-03-14T14:17:41.311Z,109.68
2023-03-14T14:20:16.255Z,108.72
2023-03-14T14:22:43.210Z,108.94
2023-03-14T14:25:15.717Z,109.78
2023-03-14T14:27:45.190Z,109.92
2023-03-14T14:30:18.221Z,108.69
2023-03-14T14:32:49.413Z,108.33
2023-03-14T14:35:35.113Z,108.87
2023-03-14T14:38:03.506Z,108.94
2023-03-14T14:40:32.059Z,108.65
2023-03-14T14:43:06.252Z,108.54
2023-03-14T14:45:35.620Z,108.42
2023-03-14T14:48:02.395Z,108.10
2023-03-14T14:50:35.295Z,108.54
2023-03-14T14:53:04.730Z,107.33
2023-03-14T14:55:40.738Z,107.30
2023-03-14T14:58:40.726Z,107.47
2023-03-14T15:01:31.921Z,106.09
2023-03-14T15:03:58.764Z,105.65
2023-03-14T15:06:29.708Z,106.02
2023-03-14T15:08:56.524Z,106.30
2023-03-14T15:11:26.324Z,106.57
2023-03-14T15:13:53.738Z,106.67
2023-03-14T15:16:28.973Z,105.12
2023-03-14T15:19:03.263Z,105.18
2023-03-14T15:21:34.323Z,102.83
2023-03-14T15:24:01.314Z,104.44
2023-03-14T15:26:28.650Z,101.53
2023-03-14T15:28:55.443Z,101.36
2023-03-14T15:31:22.464Z,101.96
2023-03-14T15:33:49.383Z,101.00
2023-03-14T15:36:25.844Z,100.30
2023-03-14T15:38:54.802Z,100.58
2023-03-14T15:41:22.515Z,98.03
2023-03-14T15:43:49.858Z,96.77
2023-03-14T15:46:19.454Z,94.59
2023-03-14T15:48:47.019Z,96.55
2023-03-14T15:51:14.357Z,94.73
2023-03-14T15:53:42.245Z,94.30
2023-03-14T15:56:13.248Z,91.86
2023-03-14T15:58:41.327Z,92.89
2023-03-14T16:01:12.213Z,92.81
2023-03-14T16:03:39.365Z,90.79
2023-03-14T16:06:06.781Z,93.51
2023-03-14T16:08:33.883Z,92.27
2023-03-14T16:11:01.324Z,93.62
2023-03-14T16:13:28.702Z,92.39
2023-03-14T16:16:04.226Z,87.54
2023-03-14T16:18:34.292Z,85.04
2023-03-14T16:21:06.954Z,88.62
2023-03-14T16:23:35.778Z,85.87
2023-03-14T16:26:08.885Z,85.90
2023-03-14T16:28:36.072Z,84.64
2023-03-14T16:31:05.523Z,87.42
2023-03-14T16:33:32.733Z,85.49
2023-03-14T16:36:02.143Z,81.78
2023-03-14T16:38:33.060Z,83.78
2023-03-14T16:41:11.530Z,84.24
2023-03-14T16:43:38.418Z,88.64
2023-03-14T16:46:07.582Z,87.36
2023-03-14T16:48:34.448Z,85.32
2023-03-14T16:51:01.405Z,88.06
2023-03-14T16:53:30.177Z,88.97
2023-03-14T16:55:59.195Z,86.36
2023-03-14T16:58:26.603Z,89.95
2023-03-14T17:00:53.636Z,88.75
2023-03-14T17:03:20.526Z,92.24
2023-03-14T17:05:52.229Z,90.84
2023-03-14T17:08:20.697Z,88.43
2023-03-14T17:10:47.762Z,88.41
2023-03-14T17:13:15.138Z,88.55
2023-03-14T17:15:46.864Z,92.30
2023-03-14T17:18:14.072Z,91.50
2023-03-14T17:20:41.299Z,91.12
2023-03-14T17:23:09.471Z,88.47
2023-03-14T17:25:37.890Z,87.85
2023-03-14T17:28:06.270Z,88.95
2023-03-14T17:30:33.548Z,88.47
2023-03-14T17:33:00.621Z,87.43
2023-03-14T17:35:28.988Z,88.02
2023-03-14T17:37:55.851Z,87.37
2023-03-14T17:40:22.744Z,87.41
2023-03-14T17:42:50.278Z,88.15
2023-03-14T17:45:17.550Z,87.41
2023-03-14T17:47:45.016Z,85.62
2023-03-14T17:50:12.313Z,83.26
2023-03-14T17:52:39.779Z,84.66
2023-03-14T17:55:07.648Z,85.58
2023-03-14T17:57:37.977Z,82.45
2023-03-14T18:00:08.335Z,82.84
2023-03-14T18:02:36.136Z,84.36
2023-03-14T18:05:03.769Z,82.35
2023-03-14T18:07:34.431Z,81.23
2023-03-14T18:10:01.894Z,82.66
2023-03-14T18:12:29.007Z,81.30
2023-03-14T18:14:55.759Z,81.01
2023-03-14T18:17:22.825Z,80.50
2023-03-14T18:19:49.790Z,80.37
2023-03-14T18:22:16.695Z,80.27
2023-03-14T18:24:43.682Z,81.07
2023-03-14T18:27:10.460Z,86.15
2023-03-14T18:29:37.335Z,81.03
2023-03-14T18:32:04.204Z,79.96
2023-03-14T18:34:33.320Z,78.08
2023-03-14T18:37:00.911Z,80.30
2023-03-14T18:39:29.561Z,81.49
2023-03-14T18:41:56.405Z,82.19
2023-03-14T18:44:23.216Z,79.00
2023-03-14T18:46:50.087Z,81.97
2023-03-14T18:49:16.890Z,81.68
2023-03-14T18:51:43.800Z,80.43
2023-03-14T18:54:11.613Z,83.38
2023-03-14T18:56:41.076Z,81.16
2023-03-14T18:59:09.242Z,83.23
2023-03-14T19:01:37.102Z,82.58
2023-03-14T19:04:04.911Z,85.55
2023-03-14T19:06:33.295Z,83.53
2023-03-14T19:09:01.844Z,82.50
2023-03-14T19:11:28.796Z,82.25
2023-03-14T19:13:56.755Z,86.54
2023-03-14T19:16:24.820Z,82.07
2023-03-14T19:18:52.474Z,81.34
2023-03-14T19:21:31.668Z,85.72
2023-03-14T19:23:59.574Z,84.43
2023-03-14T19:26:28.724Z,82.68
2023-03-14T19:28:55.792Z,84.51
2023-03-14T19:31:23.020Z,82.92
2023-03-14T19:33:49.848Z,82.56
2023-03-14T19:36:25.453Z,85.57
2023-03-14T19:38:53.102Z,85.72
2023-03-14T19:41:21.516Z,84.74
2023-03-14T19:43:48.581Z,84.39
2023-03-14T19:46:15.521Z,83.20
2023-03-14T19:48:45.748Z,84.00
2023-03-14T19:51:14.186Z,83.34
2023-03-14T19:53:45.009Z,85.63
2023-03-14T19:56:12.030Z,86.14
2023-03-14T19:58:40.066Z,86.74
2023-03-14T20:01:08.206Z,87.03
2023-03-14T20:03:36.523Z,85.77
2023-03-14T20:06:08.074Z,87.80
2023-03-14T20:08:35.185Z,88.92
2023-03-14T20:11:06.767Z,89.38
2023-03-14T20:13:33.605Z,90.84
2023-03-14T20:16:03.942Z,90.27
2023-03-14T20:18:31.350Z,88.66
2023-03-14T20:20:58.587Z,88.97
2023-03-14T20:23:26.187Z,90.70
2023-03-14T20:25:56.913Z,89.14
2023-03-14T20:28:23.892Z,92.95
2023-03-14T20:30:51.200Z,92.38
2023-03-14T20:33:19.725Z,90.26
2023-03-14T20:35:54.306Z,88.58
2023-03-14T20:38:21.168Z,89.72
2023-03-14T20:40:48.018Z,89.37
2023-03-14T20:43:14.738Z,90.32
2023-03-14T20:45:41.514Z,90.69
2023-03-14T20:48:08.473Z,90.99
2023-03-14T20:50:35.670Z,92.85
2023-03-14T20:53:02.618Z,94.61
2023-03-14T20:55:29.442Z,94.33
2023-03-14T20:57:56.315Z,94.17
2023-03-14T21:00:25.850Z,93.77
2023-03-14T21:02:54.232Z,93.97
2023-03-14T21:05:21.448Z,93.75
2023-03-14T21:07:48.273Z,94.56
2023-03-14T21:10:15.340Z,94.32
2023-03-14T21:12:42.462Z,95.67
2023-03-14T21:15:10.283Z,94.91
2023-03-14T21:17:39.058Z,95.32
2023-03-14T21:20:09.037Z,94.82
2023-03-14T21:22:35.772Z,95.35
2023-03-14T21:25:02.784Z,96.46
2023-03-14T21:27:29.512Z,97.19
2023-03-14T21:29:57.345Z,97.45
2023-03-14T21:32:24.381Z,97.34
2023-03-14T21:34:52.590Z,97.91
2023-03-14T21:37:20.127Z,97.95
2023-03-14T21:39:46.873Z,98.20
2023-03-14T21:42:13.819Z,98.26
2023-03-14T21:44:46.349Z,98.34
2023-03-14T21:47:13.359Z,99.28
2023-03-14T21:49:40.270Z,98.63
2023-03-14T21:52:09.925Z,98.80
2023-03-14T21:54:36.994Z,99.16
2023-03-14T21:57:05.754Z,98.74
2023-03-14T21:59:35.384Z,100.48
2023-03-14T22:02:06.395Z,99.28
2023-03-14T22:04:36.921Z,99.27
2023-03-14T22:07:05.180Z,98.92
2023-03-14T22:09:32.828Z,97.29
2023-03-14T22:12:00.114Z,97.00
2023-03-14T22:14:27.412Z,97.88
2023-03-14T22:16:54.925Z,97.94
2023-03-14T22:19:22.342Z,98.13
2023-03-14T22:21:49.532Z,98.42
2023-03-14T22:24:16.420Z,98.61
2023-03-14T22:26:43.229Z,98.98
2023-03-14T22:29:10.171Z,98.19
2023-03-14T22:31:37.006Z,98.81
2023-03-14T22:34:03.810Z,98.78
2023-03-14T22:36:30.767Z,100.10
2023-03-14T22:38:58.365Z,98.64
2023-03-14T22:41:25.098Z,98.97
2023-03-14T22:43:51.922Z,98.89
2023-03-14T22:46:18.817Z,99.55
2023-03-14T22:48:45.550Z,100.49
2023-03-14T22:51:13.993Z,99.62
2023-03-14T22:53:40.719Z,100.02
2023-03-14T22:56:09.208Z,100.25
2023-03-14T22:58:36.179Z,99.64
2023-03-14T23:01:03.617Z,100.91
2023-03-14T23:03:30.977Z,100.29
2023-03-14T23:05:57.753Z,101.39
2023-03-14T23:08:24.685Z,101.30
2023-03-14T23:10:53.422Z,101.87
2023-03-14T23:13:20.572Z,102.51
2023-03-14T23:15:47.264Z,102.12
2023-03-14T23:18:14.130Z,102.28
2023-03-14T23:20:43.104Z,102.28
2023-03-14T23:23:13.781Z,102.35
2023-03-14T23:25:52.827Z,102.67
2023-03-14T23:28:23.289Z,103.15
2023-03-14T23:30:55.545Z,103.10
2023-03-14T23:33:23.335Z,103.48
2023-03-14T23:35:50.234Z,103.70
2023-03-14T23:38:17.130Z,103.72
2023-03-14T23:40:44.094Z,103.71
2023-03-14T23:43:10.863Z,104.35
2023-03-14T23:45:37.565Z,103.77
2023-03-14T23:48:05.467Z,103.78
2023-03-14T23:50:35.718Z,104.22
2023-03-14T23:53:02.690Z,103.66
2023-03-14T23:55:29.663Z,104.28
2023-03-14T23:57:56.321Z,103.99
